Time;durP1;ratioP1;P1;durP2;ratioP2;P2;SDS_P1;SDS_P2;PMS_P1;PMS_P2;Temp;Humidity;BMP_temperature;BMP_pressure;BME280_temperature;BME280_humidity;BME280_pressure;Samples;Min_cycle;Max_cycle;Signal;HPM_P1;HPM_P2
2023/03/17 00:00:32;;;;;;;1.90;1.80;;;;;;;;;;4984204;28;20445;-87
2023/03/17 00:02:59;;;;;;;1.60;1.60;;;;;;;;;;4987479;28;20480;-86
2023/03/17 00:05:29;;;;;;;2.10;2.10;;;;;;;;;;4985007;28;20505;-86
2023/03/17 00:07:58;;;;;;;2.00;1.80;;;;;;;;;;4988379;28;20437;-85
2023/03/17 00:10:25;;;;;;;1.37;1.37;;;;;;;;;;4973693;28;20446;-85
2023/03/17 00:12:53;;;;;;;1.40;1.40;;;;;;;;;;4988956;28;21035;-86
2023/03/17 00:15:20;;;;;;;1.63;1.53;;;;;;;;;;4979775;28;20940;-86
2023/03/17 00:17:47;;;;;;;1.80;1.80;;;;;;;;;;4992834;28;20551;-85
2023/03/17 00:20:18;;;;;;;2.00;1.90;;;;;;;;;;4986034;28;20433;-85
2023/03/17 00:22:45;;;;;;;1.80;1.80;;;;;;;;;;4989659;28;20491;-86
2023/03/17 00:25:18;;;;;;;1.90;1.90;;;;;;;;;;4985782;28;20442;-86
2023/03/17 00:27:45;;;;;;;1.43;1.43;;;;;;;;;;4984725;28;20520;-86
2023/03/17 00:30:11;;;;;;;1.60;1.60;;;;;;;;;;4986359;28;20533;-84
2023/03/17 00:32:38;;;;;;;2.00;1.93;;;;;;;;;;4980527;28;20440;-86
2023/03/17 00:35:10;;;;;;;1.60;1.50;;;;;;;;;;4983803;28;20945;-85
2023/03/17 00:37:37;;;;;;;2.20;1.77;;;;;;;;;;4964233;28;20422;-86
2023/03/17 00:40:03;;;;;;;2.30;2.20;;;;;;;;;;4998657;28;20428;-86
2023/03/17 00:42:29;;;;;;;2.03;2.00;;;;;;;;;;4993320;28;20452;-85
2023/03/17 00:44:56;;;;;;;1.80;1.80;;;;;;;;;;4987732;28;20468;-85
2023/03/17 00:47:22;;;;;;;1.60;1.60;;;;;;;;;;4986179;28;20437;-86
2023/03/17 00:49:48;;;;;;;2.17;2.07;;;;;;;;;;4981783;28;20468;-86
2023/03/17 00:52:14;;;;;;;1.87;1.77;;;;;;;;;;4996650;28;20426;-85
2023/03/17 00:54:40;;;;;;;1.87;1.77;;;;;;;;;;4989170;28;20453;-87
2023/03/17 00:57:09;;;;;;;1.90;1.90;;;;;;;;;;4990681;28;20441;-87
2023/03/17 00:59:39;;;;;;;1.43;1.43;;;;;;;;;;4989111;28;20534;-85
2023/03/17 01:02:05;;;;;;;1.80;1.80;;;;;;;;;;4987114;28;20918;-86
2023/03/17 01:04:32;;;;;;;1.70;1.70;;;;;;;;;;4978889;28;20453;-86
2023/03/17 01:06:59;;;;;;;1.70;1.70;;;;;;;;;;4981505;28;20444;-85
2023/03/17 01:09:26;;;;;;;2.10;1.50;;;;;;;;;;4977941;28;20448;-86
2023/03/17 01:11:53;;;;;;;1.50;1.50;;;;;;;;;;4980421;28;20520;-87
2023/03/17 01:14:20;;;;;;;1.20;1.20;;;;;;;;;;4975357;28;20441;-85
2023/03/17 01:16:46;;;;;;;2.73;2.03;;;;;;;;;;4982826;28;20489;-86
2023/03/17 01:19:15;;;;;;;1.67;1.67;;;;;;;;;;4983233;28;20442;-85
2023/03/17 01:21:41;;;;;;;1.87;1.77;;;;;;;;;;4982178;28;20453;-85
2023/03/17 01:24:08;;;;;;;1.63;1.63;;;;;;;;;;4984962;28;20455;-86
2023/03/17 01:26:34;;;;;;;1.77;1.77;;;;;;;;;;4983567;28;20445;-85
2023/03/17 01:29:00;;;;;;;1.53;1.43;;;;;;;;;;4980917;28;20433;-85
2023/03/17 01:31:27;;;;;;;1.87;1.87;;;;;;;;;;4983564;28;20497;-86
2023/03/17 01:33:53;;;;;;;1.80;1.80;;;;;;;;;;4980307;28;20512;-85
2023/03/17 01:36:19;;;;;;;2.50;2.07;;;;;;;;;;4981636;28;20881;-85
2023/03/17 01:38:49;;;;;;;1.80;1.80;;;;;;;;;;4982911;28;20441;-86
2023/03/17 01:41:15;;;;;;;1.67;1.67;;;;;;;;;;4982375;28;20454;-85
2023/03/17 01:43:42;;;;;;;1.50;1.50;;;;;;;;;;4980234;28;20496;-85
2023/03/17 01:46:20;;;;;;;2.00;1.90;;;;;;;;;;4986762;28;20430;-86
2023/03/17 01:48:52;;;;;;;1.60;1.60;;;;;;;;;;4976265;28;20464;-85
2023/03/17 01:51:22;;;;;;;1.50;1.50;;;;;;;;;;4980284;28;20441;-86
2023/03/17 01:53:51;;;;;;;1.60;1.60;;;;;;;;;;4986634;28;20561;-86
2023/03/17 01:56:18;;;;;;;1.73;1.73;;;;;;;;;;4966508;28;20848;-86
2023/03/17 01:58:46;;;;;;;1.90;1.90;;;;;;;;;;4980623;28;20449;-85
2023/03/17 02:01:12;;;;;;;1.73;1.73;;;;;;;;;;4981533;28;20465;-86
2023/03/17 02:03:39;;;;;;;2.13;1.97;;;;;;;;;;4977785;28;20979;-85
2023/03/17 02:06:06;;;;;;;1.57;1.57;;;;;;;;;;4978531;28;20429;-85
2023/03/17 02:08:32;;;;;;;2.10;2.10;;;;;;;;;;4972747;28;20473;-85
2023/03/17 02:10:58;;;;;;;1.63;1.63;;;;;;;;;;4979257;28;20434;-87
2023/03/17 02:13:25;;;;;;;2.00;2.00;;;;;;;;;;4978501;28;20469;-86
2023/03/17 02:15:52;;;;;;;1.80;1.70;;;;;;;;;;4994821;28;20429;-85
2023/03/17 02:18:20;;;;;;;2.30;2.20;;;;;;;;;;4977677;28;20464;-85
2023/03/17 02:20:46;;;;;;;1.70;1.70;;;;;;;;;;4979149;28;20425;-87
2023/03/17 02:23:16;;;;;;;2.00;2.00;;;;;;;;;;4984963;28;20428;-85
2023/03/17 02:25:44;;;;;;;1.87;1.70;;;;;;;;;;4992462;28;20448;-85
2023/03/17 02:28:12;;;;;;;2.00;1.90;;;;;;;;;;4983676;28;20493;-87
2023/03/17 02:30:41;;;;;;;1.60;1.60;;;;;;;;;;4981269;28;20529;-86
2023/03/17 02:33:08;;;;;;;1.70;1.70;;;;;;;;;;4982642;28;20437;-85
2023/03/17 02:35:34;;;;;;;1.47;1.47;;;;;;;;;;4975462;28;20429;-85
2023/03/17 02:38:00;;;;;;;1.90;1.80;;;;;;;;;;4979285;28;20437;-85
2023/03/17 02:40:27;;;;;;;2.93;1.47;;;;;;;;;;4976286;28;20516;-85
2023/03/17 02:42:53;;;;;;;1.50;1.50;;;;;;;;;;4974396;28;20504;-85
2023/03/17 02:45:19;;;;;;;1.80;1.70;;;;;;;;;;4973766;28;21118;-86
2023/03/17 02:47:47;;;;;;;1.53;1.50;;;;;;;;;;4977675;28;20924;-86
2023/03/17 02:50:20;;;;;;;1.80;1.77;;;;;;;;;;4965936;28;20913;-85
2023/03/17 02:52:46;;;;;;;1.50;1.40;;;;;;;;;;4969902;28;20425;-85
2023/03/17 02:55:12;;;;;;;2.27;2.10;;;;;;;;;;4973470;28;20540;-85
2023/03/17 02:57:38;;;;;;;1.70;1.70;;;;;;;;;;4974991;28;21159;-85
2023/03/17 03:00:04;;;;;;;2.20;2.10;;;;;;;;;;4972560;28;20464;-85
2023/03/17 03:02:30;;;;;;;2.10;1.90;;;;;;;;;;4975499;28;20464;-85
2023/03/17 03:04:56;;;;;;;1.77;1.77;;;;;;;;;;4975134;28;20464;-86
2023/03/17 03:07:22;;;;;;;1.90;1.90;;;;;;;;;;4976857;28;20524;-85
2023/03/17 03:09:48;;;;;;;1.70;1.60;;;;;;;;;;4971864;28;20445;-87
2023/03/17 03:12:14;;;;;;;1.60;1.50;;;;;;;;;;4975961;28;20432;-86
2023/03/17 03:14:40;;;;;;;1.33;1.13;;;;;;;;;;4974060;28;20441;-86
2023/03/17 03:17:07;;;;;;;1.57;1.57;;;;;;;;;;4976035;28;20453;-86
2023/03/17 03:19:33;;;;;;;1.27;1.27;;;;;;;;;;4978967;28;20473;-83
2023/03/17 03:21:59;;;;;;;1.70;1.70;;;;;;;;;;4974217;28;20458;-86
2023/03/17 03:24:26;;;;;;;1.70;1.60;;;;;;;;;;4973562;28;20449;-86
2023/03/17 03:26:52;;;;;;;2.00;2.00;;;;;;;;;;4980364;28;20453;-86
2023/03/17 03:29:18;;;;;;;1.73;1.73;;;;;;;;;;4981556;28;20429;-85
2023/03/17 03:31:46;;;;;;;1.63;1.60;;;;;;;;;;4985582;28;20519;-86
2023/03/17 03:34:12;;;;;;;1.30;1.30;;;;;;;;;;4985260;28;20450;-87
2023/03/17 03:36:38;;;;;;;1.70;1.60;;;;;;;;;;4987552;28;20447;-85
2023/03/17 03:39:04;;;;;;;2.20;2.10;;;;;;;;;;4996604;28;20510;-86
2023/03/17 03:41:30;;;;;;;1.70;1.70;;;;;;;;;;4992693;28;20464;-86
2023/03/17 03:43:56;;;;;;;2.20;1.80;;;;;;;;;;4992230;28;20425;-85
2023/03/17 03:46:22;;;;;;;2.03;2.03;;;;;;;;;;4993307;28;20425;-85
2023/03/17 03:48:49;;;;;;;1.50;1.50;;;;;;;;;;4993167;28;20492;-86
2023/03/17 03:51:15;;;;;;;1.73;1.67;;;;;;;;;;4980744;28;21031;-84
2023/03/17 03:53:41;;;;;;;1.80;1.77;;;;;;;;;;4994629;28;20434;-85
2023/03/17 03:56:07;;;;;;;1.47;1.47;;;;;;;;;;4996444;28;20416;-86
2023/03/17 03:58:33;;;;;;;3.17;1.83;;;;;;;;;;4994711;28;20442;-86
2023/03/17 04:00:59;;;;;;;2.10;2.00;;;;;;;;;;4997679;28;20393;-87
2023/03/17 04:03:25;;;;;;;1.77;1.67;;;;;;;;;;4997216;28;20461;-87
2023/03/17 04:05:51;;;;;;;1.37;1.37;;;;;;;;;;4996796;28;20457;-86
2023/03/17 04:08:17;;;;;;;1.63;1.63;;;;;;;;;;4995073;28;20440;-86
2023/03/17 04:10:43;;;;;;;1.40;1.40;;;;;;;;;;4994413;28;20402;-85
2023/03/17 04:13:09;;;;;;;1.73;1.73;;;;;;;;;;4994268;28;20429;-84
2023/03/17 04:15:36;;;;;;;1.23;1.23;;;;;;;;;;4996873;28;20424;-84
2023/03/17 04:18:04;;;;;;;1.60;1.60;;;;;;;;;;4994804;28;21304;-84
2023/03/17 04:20:30;;;;;;;1.90;1.80;;;;;;;;;;4996517;28;20414;-86
2023/03/17 04:22:56;;;;;;;1.63;1.57;;;;;;;;;;4994685;28;20483;-84
2023/03/17 04:25:24;;;;;;;1.90;1.87;;;;;;;;;;4996635;28;20429;-85
2023/03/17 04:27:50;;;;;;;1.53;1.43;;;;;;;;;;4996894;28;20441;-86
2023/03/17 04:30:17;;;;;;;1.90;1.80;;;;;;;;;;4997767;28;20469;-86
2023/03/17 04:32:45;;;;;;;2.73;2.63;;;;;;;;;;4998712;28;20472;-86
2023/03/17 04:35:16;;;;;;;1.87;1.70;;;;;;;;;;4993120;28;20448;-85
2023/03/17 04:37:42;;;;;;;1.60;1.60;;;;;;;;;;4993371;28;20445;-85
2023/03/17 04:40:09;;;;;;;1.50;1.50;;;;;;;;;;4990557;28;20460;-85
2023/03/17 04:42:36;;;;;;;1.90;1.90;;;;;;;;;;4994085;28;20453;-84
2023/03/17 04:45:03;;;;;;;1.53;1.53;;;;;;;;;;4990240;28;20433;-86
2023/03/17 04:47:29;;;;;;;1.90;1.90;;;;;;;;;;4985924;28;20438;-84
2023/03/17 04:49:55;;;;;;;1.83;1.83;;;;;;;;;;4989546;28;20526;-85
2023/03/17 04:52:21;;;;;;;1.73;1.60;;;;;;;;;;4987723;28;20445;-84
2023/03/17 04:54:47;;;;;;;1.73;1.70;;;;;;;;;;4987350;28;20481;-84
2023/03/17 04:57:13;;;;;;;1.90;1.80;;;;;;;;;;4987641;28;20445;-87
2023/03/17 04:59:39;;;;;;;2.10;1.60;;;;;;;;;;4983395;28;20449;-87
2023/03/17 05:02:06;;;;;;;3.90;1.53;;;;;;;;;;4991721;28;20536;-84
2023/03/17 05:04:32;;;;;;;1.80;1.80;;;;;;;;;;4980100;28;20446;-85
2023/03/17 05:06:58;;;;;;;1.97;1.80;;;;;;;;;;4985588;28;20449;-86
2023/03/17 05:09:24;;;;;;;1.67;1.57;;;;;;;;;;4989342;28;20548;-87
2023/03/17 05:11:51;;;;;;;1.70;1.60;;;;;;;;;;4983376;28;20441;-85
2023/03/17 05:14:17;;;;;;;2.57;1.63;;;;;;;;;;4982372;28;20453;-87
2023/03/17 05:16:43;;;;;;;1.77;1.77;;;;;;;;;;4989456;28;20457;-85
2023/03/17 05:19:09;;;;;;;1.97;1.93;;;;;;;;;;4980204;28;20873;-85
2023/03/17 05:21:34;;;;;;;1.60;1.50;;;;;;;;;;4976012;28;20457;-84
2023/03/17 05:24:01;;;;;;;1.97;1.83;;;;;;;;;;4971173;28;20527;-86
2023/03/17 05:26:27;;;;;;;2.00;1.90;;;;;;;;;;4978630;28;20444;-85
2023/03/17 05:28:53;;;;;;;1.50;1.50;;;;;;;;;;4972684;28;20441;-83
2023/03/17 05:31:22;;;;;;;6.03;1.77;;;;;;;;;;4983195;28;20429;-85
2023/03/17 05:33:49;;;;;;;2.10;2.10;;;;;;;;;;4978129;28;20464;-82
2023/03/17 05:36:15;;;;;;;3.90;1.80;;;;;;;;;;4987250;28;20512;-85
2023/03/17 05:38:43;;;;;;;2.03;1.93;;;;;;;;;;4979710;28;20449;-85
2023/03/17 05:41:09;;;;;;;1.93;1.93;;;;;;;;;;4986376;28;20425;-85
2023/03/17 05:43:36;;;;;;;1.87;1.70;;;;;;;;;;4975628;28;20445;-85
2023/03/17 05:46:02;;;;;;;2.00;1.80;;;;;;;;;;4977291;28;20421;-86
2023/03/17 05:48:28;;;;;;;2.23;2.13;;;;;;;;;;4980601;28;20999;-86
2023/03/17 05:50:54;;;;;;;1.97;1.87;;;;;;;;;;4978853;28;20437;-86
2023/03/17 05:53:21;;;;;;;2.70;2.60;;;;;;;;;;4971965;28;20964;-85
2023/03/17 05:55:47;;;;;;;1.63;1.53;;;;;;;;;;4978145;28;20440;-87
2023/03/17 05:58:14;;;;;;;1.63;1.63;;;;;;;;;;4974958;28;20445;-84
2023/03/17 06:00:40;;;;;;;3.07;1.80;;;;;;;;;;4976463;28;20794;-85
2023/03/17 06:03:06;;;;;;;1.83;1.83;;;;;;;;;;4973725;28;20468;-86
2023/03/17 06:05:33;;;;;;;1.60;1.60;;;;;;;;;;4974777;28;20452;-87
2023/03/17 06:07:59;;;;;;;2.40;2.37;;;;;;;;;;4972749;28;20457;-85
2023/03/17 06:10:26;;;;;;;1.67;1.67;;;;;;;;;;4974763;28;20920;-84
2023/03/17 06:12:52;;;;;;;2.83;2.40;;;;;;;;;;4974358;28;20842;-86
2023/03/17 06:15:18;;;;;;;2.30;2.20;;;;;;;;;;4973865;28;20482;-84
2023/03/17 06:17:45;;;;;;;2.23;2.23;;;;;;;;;;4975479;28;20572;-85
2023/03/17 06:20:11;;;;;;;1.57;1.57;;;;;;;;;;4983403;28;21208;-84
2023/03/17 06:22:38;;;;;;;2.23;2.13;;;;;;;;;;4978570;28;20877;-86
2023/03/17 06:25:04;;;;;;;2.00;2.00;;;;;;;;;;4978593;28;20437;-86
2023/03/17 06:27:31;;;;;;;2.13;2.13;;;;;;;;;;4980546;28;20429;-84
2023/03/17 06:29:58;;;;;;;2.10;2.10;;;;;;;;;;4975843;28;20461;-86
2023/03/17 06:32:24;;;;;;;1.90;1.90;;;;;;;;;;4975860;28;20449;-82
2023/03/17 06:34:50;;;;;;;1.83;1.83;;;;;;;;;;4987313;28;20549;-86
2023/03/17 06:37:16;;;;;;;3.93;2.60;;;;;;;;;;4978005;28;20937;-85
2023/03/17 06:39:44;;;;;;;1.97;1.87;;;;;;;;;;4968914;28;20453;-84
2023/03/17 06:42:10;;;;;;;2.13;2.03;;;;;;;;;;4968627;28;20465;-84
2023/03/17 06:44:36;;;;;;;2.00;1.90;;;;;;;;;;4964770;28;20570;-84
2023/03/17 06:47:03;;;;;;;2.40;2.30;;;;;;;;;;4966340;28;20440;-84
2023/03/17 06:49:30;;;;;;;1.90;1.90;;;;;;;;;;4965758;28;20492;-84
2023/03/17 06:51:56;;;;;;;1.90;1.80;;;;;;;;;;4969113;28;20464;-80
2023/03/17 06:54:24;;;;;;;2.10;2.10;;;;;;;;;;4961087;28;20434;-84
2023/03/17 06:56:50;;;;;;;2.83;2.00;;;;;;;;;;4968744;28;20425;-83
2023/03/17 06:59:16;;;;;;;2.33;2.20;;;;;;;;;;4964369;28;20682;-82
2023/03/17 07:01:43;;;;;;;2.57;2.57;;;;;;;;;;4968098;28;20485;-85
2023/03/17 07:04:09;;;;;;;2.00;1.90;;;;;;;;;;4963879;28;20462;-83
2023/03/17 07:06:35;;;;;;;1.90;1.90;;;;;;;;;;4962536;28;20519;-84
2023/03/17 07:09:02;;;;;;;2.70;2.60;;;;;;;;;;4959684;28;20461;-86
2023/03/17 07:11:29;;;;;;;3.20;3.00;;;;;;;;;;4959167;28;20452;-80
2023/03/17 07:13:55;;;;;;;2.63;2.43;;;;;;;;;;4968793;28;20876;-84
2023/03/17 07:16:22;;;;;;;2.40;2.27;;;;;;;;;;4962758;28;20441;-84
2023/03/17 07:18:49;;;;;;;2.97;2.17;;;;;;;;;;4963119;28;20429;-84
2023/03/17 07:21:15;;;;;;;2.50;2.40;;;;;;;;;;4963523;28;20433;-85
2023/03/17 07:23:41;;;;;;;3.17;2.97;;;;;;;;;;4963433;28;20537;-85
2023/03/17 07:26:07;;;;;;;3.57;2.90;;;;;;;;;;4950724;28;20445;-82
2023/03/17 07:28:33;;;;;;;3.30;3.10;;;;;;;;;;4964807;28;20437;-86
2023/03/17 07:31:01;;;;;;;2.10;2.10;;;;;;;;;;4964375;28;20903;-81
2023/03/17 07:33:32;;;;;;;2.67;2.43;;;;;;;;;;4970735;28;21134;-79
2023/03/17 07:35:58;;;;;;;3.43;3.20;;;;;;;;;;4966441;28;20911;-85
2023/03/17 07:38:24;;;;;;;3.03;2.83;;;;;;;;;;4969863;28;20507;-82
2023/03/17 07:40:51;;;;;;;3.17;2.53;;;;;;;;;;4963551;28;20432;-85
2023/03/17 07:43:17;;;;;;;2.80;2.70;;;;;;;;;;4971165;28;20473;-86
2023/03/17 07:45:45;;;;;;;3.33;2.40;;;;;;;;;;4985272;28;20424;-86
2023/03/17 07:48:11;;;;;;;4.03;3.37;;;;;;;;;;4978823;28;20442;-87
2023/03/17 07:50:41;;;;;;;2.00;2.00;;;;;;;;;;4993359;28;20471;-85
2023/03/17 07:53:07;;;;;;;3.50;2.70;;;;;;;;;;4991107;28;20444;-85
2023/03/17 07:55:35;;;;;;;2.20;2.10;;;;;;;;;;4985753;28;20822;-86
2023/03/17 07:58:02;;;;;;;2.47;2.47;;;;;;;;;;4983802;28;20808;-84
2023/03/17 08:00:28;;;;;;;2.63;2.43;;;;;;;;;;4980084;28;20445;-87
2023/03/17 08:02:55;;;;;;;2.30;2.20;;;;;;;;;;4976063;28;20516;-87
2023/03/17 08:05:21;;;;;;;2.77;2.67;;;;;;;;;;4978963;28;20935;-88
2023/03/17 08:07:48;;;;;;;2.60;2.50;;;;;;;;;;4975420;28;20468;-85
2023/03/17 08:10:14;;;;;;;2.70;2.40;;;;;;;;;;4963402;28;21054;-83
2023/03/17 08:12:41;;;;;;;2.50;2.33;;;;;;;;;;4970811;28;20445;-83
2023/03/17 08:15:08;;;;;;;2.63;2.30;;;;;;;;;;4964503;28;20525;-83
2023/03/17 08:17:35;;;;;;;1.87;1.87;;;;;;;;;;4982285;28;20852;-82
2023/03/17 08:20:01;;;;;;;2.23;2.23;;;;;;;;;;4963426;28;20471;-83
2023/03/17 08:22:27;;;;;;;2.37;2.10;;;;;;;;;;4965295;28;21059;-83
2023/03/17 08:24:54;;;;;;;4.20;2.57;;;;;;;;;;4964848;28;20963;-81
2023/03/17 08:27:21;;;;;;;2.97;2.87;;;;;;;;;;4966816;28;21080;-83
2023/03/17 08:29:47;;;;;;;2.40;2.30;;;;;;;;;;4972443;28;20477;-85
2023/03/17 08:32:13;;;;;;;2.57;2.47;;;;;;;;;;4972127;28;20520;-85
2023/03/17 08:34:40;;;;;;;2.27;2.20;;;;;;;;;;4964032;28;20465;-84
2023/03/17 08:37:06;;;;;;;4.60;2.70;;;;;;;;;;4968554;28;20491;-84
2023/03/17 08:39:32;;;;;;;6.70;2.67;;;;;;;;;;4966279;28;20826;-84
2023/03/17 08:41:58;;;;;;;2.40;2.30;;;;;;;;;;4976406;28;21087;-86
2023/03/17 08:44:24;;;;;;;2.47;2.37;;;;;;;;;;4970194;28;20464;-87
2023/03/17 08:46:50;;;;;;;2.90;2.90;;;;;;;;;;4970600;28;20441;-83
2023/03/17 08:49:16;;;;;;;3.17;2.17;;;;;;;;;;4968738;28;20461;-84
2023/03/17 08:51:43;;;;;;;2.33;2.23;;;;;;;;;;4983352;28;20437;-84
2023/03/17 08:54:10;;;;;;;2.60;2.40;;;;;;;;;;4969458;28;20441;-79
2023/03/17 08:56:36;;;;;;;2.60;2.50;;;;;;;;;;4967576;28;20532;-85
2023/03/17 08:59:04;;;;;;;2.10;2.10;;;;;;;;;;4972584;28;20857;-85
2023/03/17 09:01:30;;;;;;;2.67;2.57;;;;;;;;;;4968359;28;20465;-86
2023/03/17 09:03:56;;;;;;;2.23;2.20;;;;;;;;;;4972786;28;20425;-86
2023/03/17 09:06:22;;;;;;;2.73;2.73;;;;;;;;;;4970347;28;20437;-85
2023/03/17 09:08:53;;;;;;;2.97;2.83;;;;;;;;;;4972636;28;20440;-87
2023/03/17 09:11:23;;;;;;;2.30;2.20;;;;;;;;;;4978035;28;20440;-85
2023/03/17 09:13:49;;;;;;;2.53;2.43;;;;;;;;;;4980616;28;20735;-85
2023/03/17 09:16:16;;;;;;;2.50;2.30;;;;;;;;;;4978099;28;20545;-85
2023/03/17 09:18:43;;;;;;;2.23;2.20;;;;;;;;;;4981665;28;20445;-83
2023/03/17 09:21:09;;;;;;;2.37;2.23;;;;;;;;;;4977972;28;20441;-84
2023/03/17 09:23:35;;;;;;;2.10;2.10;;;;;;;;;;4976395;28;20448;-84
2023/03/17 09:26:02;;;;;;;2.77;2.73;;;;;;;;;;4982844;28;20913;-84
2023/03/17 09:28:28;;;;;;;2.07;1.97;;;;;;;;;;4976351;28;20453;-88
2023/03/17 09:30:58;;;;;;;2.60;2.40;;;;;;;;;;4976622;28;20441;-86
2023/03/17 09:33:24;;;;;;;1.80;1.80;;;;;;;;;;4977289;28;20452;-84
2023/03/17 09:35:55;;;;;;;2.30;2.20;;;;;;;;;;4980454;28;20449;-86
2023/03/17 09:38:22;;;;;;;2.40;2.30;;;;;;;;;;4973795;28;20463;-84
2023/03/17 09:40:48;;;;;;;3.33;2.80;;;;;;;;;;4974893;28;20438;-87
2023/03/17 09:43:14;;;;;;;2.40;2.20;;;;;;;;;;4974598;28;20958;-86
2023/03/17 09:45:41;;;;;;;2.37;2.27;;;;;;;;;;4974613;28;20452;-87
2023/03/17 09:48:22;;;;;;;2.47;2.47;;;;;;;;;;4969959;28;20454;-86
2023/03/17 09:51:01;;;;;;;2.23;2.23;;;;;;;;;;4968791;28;20448;-85
2023/03/17 09:53:32;;;;;;;2.73;2.53;;;;;;;;;;4964894;28;20500;-86
2023/03/17 09:56:00;;;;;;;2.90;2.53;;;;;;;;;;4971423;28;20795;-84
2023/03/17 09:58:29;;;;;;;3.27;2.60;;;;;;;;;;4970112;28;20608;-88
2023/03/17 10:00:55;;;;;;;3.40;2.23;;;;;;;;;;4971367;28;20457;-87
2023/03/17 10:03:22;;;;;;;2.47;2.27;;;;;;;;;;4968194;28;20485;-86
2023/03/17 10:05:48;;;;;;;2.53;2.37;;;;;;;;;;4970626;28;20519;-87
2023/03/17 10:08:19;;;;;;;2.17;2.17;;;;;;;;;;4974019;28;20433;-86
2023/03/17 10:10:45;;;;;;;2.10;2.10;;;;;;;;;;4972275;28;20951;-87
2023/03/17 10:13:21;;;;;;;1.97;1.97;;;;;;;;;;4970064;28;20978;-86
2023/03/17 10:15:53;;;;;;;2.40;2.40;;;;;;;;;;4971747;28;20447;-84
2023/03/17 10:18:23;;;;;;;1.80;1.80;;;;;;;;;;4968623;28;20453;-85
2023/03/17 10:20:53;;;;;;;2.40;2.40;;;;;;;;;;4973714;28;20472;-87
2023/03/17 10:23:23;;;;;;;4.30;2.77;;;;;;;;;;4970161;28;20781;-86
2023/03/17 10:25:49;;;;;;;2.20;2.07;;;;;;;;;;4972790;28;20543;-84
2023/03/17 10:28:24;;;;;;;1.97;1.97;;;;;;;;;;4970549;28;20468;-84
2023/03/17 10:30:51;;;;;;;2.13;2.13;;;;;;;;;;4981995;28;20437;-86
2023/03/17 10:33:20;;;;;;;2.80;2.60;;;;;;;;;;4966343;28;20452;-83
2023/03/17 10:35:46;;;;;;;1.87;1.77;;;;;;;;;;4974202;28;20532;-85
2023/03/17 10:38:20;;;;;;;2.43;2.40;;;;;;;;;;4968756;28;20441;-86
2023/03/17 10:40:47;;;;;;;5.67;4.00;;;;;;;;;;4969027;28;20445;-83
2023/03/17 10:43:19;;;;;;;2.53;2.53;;;;;;;;;;4977595;28;20492;-86
2023/03/17 10:45:57;;;;;;;2.60;2.50;;;;;;;;;;4970304;28;20500;-85
2023/03/17 10:48:23;;;;;;;2.77;2.53;;;;;;;;;;4975058;28;20452;-84
2023/03/17 10:50:55;;;;;;;2.33;2.20;;;;;;;;;;4961046;28;20461;-85
2023/03/17 10:53:28;;;;;;;2.83;2.67;;;;;;;;;;4966732;28;20444;-85
2023/03/17 10:56:14;;;;;;;2.30;2.20;;;;;;;;;;4965571;28;20463;-86
2023/03/17 10:58:48;;;;;;;2.27;2.20;;;;;;;;;;4962769;28;21036;-81
2023/03/17 11:01:28;;;;;;;2.63;2.53;;;;;;;;;;4983345;28;20468;-83
2023/03/17 11:03:54;;;;;;;2.37;2.37;;;;;;;;;;4978447;28;20567;-85
2023/03/17 11:06:30;;;;;;;2.60;2.50;;;;;;;;;;4972224;28;20457;-85
2023/03/17 11:08:56;;;;;;;2.10;2.10;;;;;;;;;;4985758;28;20424;-85
2023/03/17 11:11:22;;;;;;;2.70;2.50;;;;;;;;;;4981897;28;20517;-83
2023/03/17 11:13:48;;;;;;;2.37;2.30;;;;;;;;;;4984834;28;20429;-84
2023/03/17 11:16:15;;;;;;;2.70;2.40;;;;;;;;;;4979096;28;20460;-83
2023/03/17 11:18:44;;;;;;;2.40;2.40;;;;;;;;;;4976798;28;20453;-83
2023/03/17 11:21:13;;;;;;;2.60;2.50;;;;;;;;;;4973562;28;20782;-86
2023/03/17 11:23:41;;;;;;;3.33;3.10;;;;;;;;;;4971466;28;20456;-83
2023/03/17 11:26:20;;;;;;;4.67;2.50;;;;;;;;;;4977197;28;20456;-85
2023/03/17 11:28:51;;;;;;;2.90;2.70;;;;;;;;;;4969617;28;20449;-85
2023/03/17 11:31:20;;;;;;;2.40;2.40;;;;;;;;;;4968073;28;20475;-84
2023/03/17 11:34:04;;;;;;;2.40;2.13;;;22.50;54.10;;;;;;4966980;28;20441;-86
2023/03/17 11:36:45;;;;;;;2.70;2.70;;;23.00;52.50;;;;;;4965712;28;20441;-85
2023/03/17 11:39:40;;;;;;;2.30;2.10;;;23.40;55.10;;;;;;4973994;28;20508;-86
2023/03/17 11:42:18;;;;;;;2.50;2.30;;;23.50;56.40;;;;;;4946955;28;20515;-85
2023/03/17 11:45:08;;;;;;;2.60;2.50;;;23.70;57.00;;;;;;4977281;28;20457;-85
2023/03/17 11:47:44;;;;;;;2.20;2.10;;;23.60;58.50;;;;;;4969789;28;20420;-84
2023/03/17 11:50:11;;;;;;;2.30;2.10;;;;;;;;;;4963406;28;20491;-86
2023/03/17 11:53:00;;;;;;;2.50;2.40;;;;;;;;;;4967950;28;20440;-84
2023/03/17 11:55:48;;;;;;;3.53;3.30;;;23.70;53.90;;;;;;4963689;28;20557;-83
2023/03/17 11:58:31;;;;;;;5.40;3.10;;;24.00;54.70;;;;;;4975333;28;20448;-84
2023/03/17 12:01:00;;;;;;;2.90;2.80;;;23.90;51.90;;;;;;4966939;28;20445;-84
2023/03/17 12:03:44;;;;;;;2.37;2.20;;;23.30;54.80;;;;;;4969402;28;20469;-86
2023/03/17 12:06:19;;;;;;;2.07;2.07;;;22.80;53.00;;;;;;4966357;28;20464;-84
2023/03/17 12:08:58;;;;;;;2.70;2.53;;;23.30;55.50;;;;;;4971347;28;20520;-83
2023/03/17 12:11:28;;;;;;;2.50;2.40;;;23.30;53.00;;;;;;4962280;28;20480;-83
2023/03/17 12:14:38;;;;;;;2.00;1.90;;;24.30;55.30;;;;;;4969844;28;20456;-83
2023/03/17 12:17:27;;;;;;;5.40;2.03;;;23.60;53.40;;;;;;4963948;28;20499;-84
2023/03/17 12:20:17;;;;;;;4.17;2.10;;;23.20;55.70;;;;;;4963801;28;20452;-85
2023/03/17 12:23:28;;;;;;;2.50;2.37;;;22.80;54.10;;;;;;4974262;28;20469;-83
2023/03/17 12:26:14;;;;;;;2.80;2.60;;;22.60;54.30;;;;;;4961989;28;20856;-85
2023/03/17 12:28:59;;;;;;;3.90;2.53;;;22.60;54.50;;;;;;4975851;28;20434;-86
2023/03/17 12:31:44;;;;;;;3.20;3.00;;;22.40;56.80;;;;;;4975660;28;20472;-83
2023/03/17 12:34:41;;;;;;;4.10;1.97;;;22.40;58.80;;;;;;4980417;28;20452;-83
2023/03/17 12:37:08;;;;;;;3.10;2.90;;;21.70;58.70;;;;;;5059661;23;21199;-87
2023/03/17 12:39:36;;;;;;;2.30;2.30;;;21.50;61.20;;;;;;4946065;29;20432;-85
2023/03/17 12:42:21;;;;;;;2.53;2.53;;;21.10;69.40;;;;;;4958107;29;20541;-87
2023/03/17 12:44:49;;;;;;;1.83;1.83;;;21.20;66.20;;;;;;4952350;29;20541;-86
2023/03/17 12:47:16;;;;;;;1.97;1.97;;;;;;;;;;4938844;29;20469;-83
2023/03/17 12:50:04;;;;;;;2.13;1.93;;;;;;;;;;4941746;29;20522;-84
2023/03/17 12:52:36;;;;;;;2.87;2.77;;;;;;;;;;4951557;29;20451;-86
2023/03/17 12:55:06;;;;;;;2.47;2.37;;;;;;;;;;4947729;29;20431;-88
2023/03/17 12:57:45;;;;;;;2.10;2.10;;;;;;;;;;4948541;29;20575;-86
2023/03/17 13:00:14;;;;;;;1.73;1.73;;;;;;;;;;4948448;29;20423;-86
2023/03/17 13:02:40;;;;;;;2.53;2.40;;;;;;;;;;4937635;29;20510;-89
2023/03/17 13:05:08;;;;;;;2.70;2.60;;;;;;;;;;4943004;29;20502;-87
2023/03/17 13:07:58;;;;;;;2.20;2.10;;;;;;;;;;4953187;29;20485;-84
2023/03/17 13:10:42;;;;;;;2.40;2.20;;;;;;;;;;4932696;29;20433;-85
2023/03/17 13:13:09;;;;;;;2.37;2.27;;;;;;;;;;4949665;29;20449;-86
2023/03/17 13:15:39;;;;;;;6.90;3.07;;;;;;;;;;4944636;29;20445;-85
2023/03/17 13:18:15;;;;;;;2.23;2.13;;;;;;;;;;4933102;29;20506;-87
2023/03/17 13:20:45;;;;;;;2.40;2.30;;;;;;;;;;4918454;29;20847;-84
2023/03/17 13:23:33;;;;;;;3.50;2.70;;;21.30;73.70;;;;;;4901067;29;21033;-84
2023/03/17 13:26:02;;;;;;;1.93;1.93;;;;;;;;;;4912915;29;20432;-84
2023/03/17 13:28:34;;;;;;;2.87;2.60;;;;;;;;;;4914808;29;20452;-83
2023/03/17 13:31:11;;;;;;;3.37;2.40;;;;;;;;;;4919234;29;20463;-84
2023/03/17 13:33:50;;;;;;;3.60;2.37;;;21.30;70.30;;;;;;4916240;29;20459;-82
2023/03/17 13:36:25;;;;;;;3.40;2.73;;;21.50;70.70;;;;;;4911411;29;20438;-82
2023/03/17 13:39:00;;;;;;;2.40;2.00;;;21.70;70.80;;;;;;4912800;29;20469;-85
2023/03/17 13:42:03;;;;;;;2.43;2.23;;;21.50;74.50;;;;;;4924631;29;20734;-85
2023/03/17 13:44:41;;;;;;;2.10;2.10;;;21.00;70.40;;;;;;4910197;29;20684;-84
2023/03/17 13:50:21;;;;;;;2.60;2.60;;;20.90;74.90;;;;;;4907675;29;20445;-80
2023/03/17 13:52:51;;;;;;;2.27;2.00;;;21.00;74.20;;;;;;4909194;29;20455;-85
2023/03/17 13:55:17;;;;;;;2.60;2.40;;;21.20;70.50;;;;;;4916037;29;20446;-85
2023/03/17 13:57:53;;;;;;;3.50;2.53;;;21.10;74.40;;;;;;4908340;29;20452;-85
2023/03/17 14:00:24;;;;;;;3.10;2.90;;;21.30;74.50;;;;;;4914513;29;20176;-87
2023/03/17 14:03:04;;;;;;;2.10;2.10;;;21.50;70.40;;;;;;4918163;29;20475;-85
2023/03/17 14:05:34;;;;;;;3.30;2.23;;;21.60;71.50;;;;;;4891625;29;20491;-85
2023/03/17 14:08:28;;;;;;;2.57;2.33;;;21.60;75.70;;;;;;4931428;29;20475;-83
2023/03/17 14:10:59;;;;;;;3.20;2.67;;;21.20;70.40;;;;;;4934028;29;20434;-87
2023/03/17 14:13:27;;;;;;;2.30;2.20;;;;;;;;;;4932982;29;20462;-84
2023/03/17 14:16:05;;;;;;;2.67;2.27;;;;;;;;;;4925234;29;20452;-82
2023/03/17 14:18:39;;;;;;;2.77;2.57;;;20.70;74.20;;;;;;4925927;29;20451;-85
2023/03/17 14:21:08;;;;;;;1.80;1.80;;;;;;;;;;4927442;29;20448;-86
2023/03/17 14:23:35;;;;;;;2.03;2.03;;;;;;;;;;4923163;29;20485;-85
2023/03/17 14:26:02;;;;;;;2.10;1.97;;;;;;;;;;4943458;29;20448;-85
2023/03/17 14:28:37;;;;;;;1.70;1.70;;;;;;;;;;4936553;29;20443;-85
2023/03/17 14:31:05;;;;;;;3.60;1.90;;;;;;;;;;4925468;29;20439;-84
2023/03/17 14:33:41;;;;;;;2.10;2.00;;;;;;;;;;4930356;29;20420;-85
2023/03/17 14:36:10;;;;;;;2.60;2.50;;;;;;;;;;4917215;29;20447;-86
2023/03/17 14:38:37;;;;;;;2.40;1.77;;;;;;;;;;4928518;29;20463;-85
2023/03/17 14:41:05;;;;;;;2.20;2.17;;;;;;;;;;4915007;29;20502;-84
2023/03/17 14:43:32;;;;;;;1.97;1.90;;;;;;;;;;4931279;29;20471;-85